createdAt,value
2022-11-04T00:02:17.007Z,22.58
2022-11-04T00:04:44.216Z,23.60
2022-11-04T00:07:31.171Z,25.23
2022-11-04T00:09:58.657Z,21.10
2022-11-04T00:12:25.674Z,26.27
2022-11-04T00:14:53.362Z,23.98
2022-11-04T00:17:21.905Z,21.30
2022-11-04T00:20:30.318Z,19.27
2022-11-04T00:23:16.692Z,24.05
2022-11-04T00:26:02.292Z,20.20
2022-11-04T00:28:44.670Z,21.98
2022-11-04T00:31:30.598Z,20.30
2022-11-04T00:33:59.349Z,18.35
2022-11-04T00:36:27.092Z,25.20
2022-11-04T00:38:54.724Z,20.92
2022-11-04T00:41:26.367Z,21.98
2022-11-04T00:43:59.378Z,19.08
2022-11-04T00:46:29.189Z,20.60
2022-11-04T00:48:56.411Z,19.25
2022-11-04T00:51:24.037Z,20.75
2022-11-04T00:53:53.129Z,18.17
2022-11-04T00:56:20.170Z,19.45
2022-11-04T00:58:47.616Z,17.42
2022-11-04T01:01:19.919Z,20.08
2022-11-04T01:03:50.519Z,20.38
2022-11-04T01:06:19.367Z,17.15
2022-11-04T01:08:47.720Z,16.08
2022-11-04T01:11:16.382Z,15.27
2022-11-04T01:13:43.651Z,19.42
2022-11-04T01:16:12.871Z,15.88
2022-11-04T01:18:41.392Z,15.15
2022-11-04T01:21:13.039Z,16.42
2022-11-04T01:23:42.589Z,14.93
2022-11-04T01:26:19.478Z,14.45
2022-11-04T01:28:47.192Z,15.48
2022-11-04T01:31:21.550Z,13.95
2022-11-04T01:33:50.721Z,17.20
2022-11-04T01:36:19.099Z,21.23
2022-11-04T01:38:46.489Z,17.45
2022-11-04T01:41:23.541Z,15.90
2022-11-04T01:43:55.163Z,14.18
2022-11-04T01:46:47.449Z,16.23
2022-11-04T01:49:33.351Z,14.35
2022-11-04T01:52:10.933Z,22.30
2022-11-04T01:54:41.795Z,18.55
2022-11-04T01:57:17.995Z,22.17
2022-11-04T01:59:46.527Z,25.65
2022-11-04T02:02:13.832Z,18.83
2022-11-04T02:04:43.927Z,29.13
2022-11-04T02:07:12.210Z,23.05
2022-11-04T02:09:41.516Z,21.92
2022-11-04T02:12:27.240Z,18.25
2022-11-04T02:14:55.756Z,23.27
2022-11-04T02:17:52.282Z,16.40
2022-11-04T02:20:41.128Z,14.07
2022-11-04T02:23:34.292Z,16.15
2022-11-04T02:26:52.892Z,16.60
2022-11-04T02:29:46.467Z,16.48
2022-11-04T02:32:34.473Z,25.67
2022-11-04T02:35:16.421Z,26.02
2022-11-04T02:38:18.603Z,23.33
2022-11-04T02:41:07.172Z,20.38
2022-11-04T02:43:40.117Z,18.63
2022-11-04T02:49:10.348Z,16.27
2022-11-04T02:51:49.126Z,15.75
2022-11-04T02:54:19.096Z,16.35
2022-11-04T02:56:52.557Z,17.05
2022-11-04T02:59:38.185Z,16.25
2022-11-04T03:02:27.317Z,20.02
2022-11-04T03:04:58.729Z,17.83
2022-11-04T03:07:35.054Z,18.10
2022-11-04T03:10:11.200Z,18.63
2022-11-04T03:13:05.424Z,17.02
2022-11-04T03:15:38.093Z,16.75
2022-11-04T03:18:36.974Z,15.25
2022-11-04T03:21:10.876Z,15.85
2022-11-04T03:23:38.808Z,21.02
2022-11-04T03:26:25.509Z,25.73
2022-11-04T03:29:13.949Z,25.35
2022-11-04T03:32:08.145Z,22.92
2022-11-04T03:34:37.795Z,22.00
2022-11-04T03:37:05.788Z,24.63
2022-11-04T03:39:33.548Z,19.90
2022-11-04T03:42:20.342Z,16.63
2022-11-04T03:44:55.406Z,14.40
2022-11-04T03:47:27.037Z,16.70
2022-11-04T03:50:06.961Z,14.73
2022-11-04T03:52:35.881Z,15.63
2022-11-04T03:55:07.305Z,13.32
2022-11-04T03:58:00.874Z,14.93
2022-11-04T04:00:51.873Z,12.73
2022-11-04T04:03:31.332Z,12.25
2022-11-04T04:06:19.924Z,15.13
2022-11-04T04:08:55.767Z,57.15
2022-11-04T04:11:49.684Z,25.98
2022-11-04T04:14:40.367Z,15.35
2022-11-04T04:17:22.108Z,20.67
2022-11-04T04:20:20.471Z,21.10
2022-11-04T04:22:58.689Z,23.02
2022-11-04T04:25:49.116Z,22.25
2022-11-04T04:28:19.367Z,17.85
2022-11-04T04:30:46.983Z,15.20
2022-11-04T04:33:18.721Z,13.70
2022-11-04T04:35:56.175Z,14.73
2022-11-04T04:38:45.784Z,14.05
2022-11-04T04:41:47.459Z,14.55
2022-11-04T04:44:45.529Z,20.35
2022-11-04T04:47:24.643Z,12.75
2022-11-04T04:50:01.019Z,15.10
2022-11-04T04:52:34.394Z,11.80
2022-11-04T04:55:04.405Z,13.07
2022-11-04T04:57:31.765Z,11.10
2022-11-04T04:59:58.817Z,18.63
2022-11-04T05:02:26.154Z,21.38
2022-11-04T05:04:53.161Z,22.52
2022-11-04T05:07:20.398Z,20.42
2022-11-04T05:09:47.501Z,23.88
2022-11-04T05:12:14.532Z,14.73
2022-11-04T05:14:41.734Z,21.27
2022-11-04T05:17:08.768Z,23.83
2022-11-04T05:19:36.017Z,20.73
2022-11-04T05:22:03.585Z,14.68
2022-11-04T05:24:30.839Z,18.40
2022-11-04T05:26:57.785Z,19.42
2022-11-04T05:29:24.999Z,20.40
2022-11-04T05:31:52.018Z,21.20
2022-11-04T05:34:19.209Z,15.88
2022-11-04T05:36:46.115Z,23.08
2022-11-04T05:39:14.580Z,14.77
2022-11-04T05:41:41.613Z,26.67
2022-11-04T05:44:10.628Z,26.08
2022-11-04T05:46:37.623Z,32.35
2022-11-04T05:49:05.118Z,19.42
2022-11-04T05:51:32.171Z,17.88
2022-11-04T05:54:00.391Z,16.38
2022-11-04T05:56:29.183Z,15.10
2022-11-04T05:58:56.446Z,16.58
2022-11-04T06:01:31.670Z,16.50
2022-11-04T06:04:00.707Z,14.27
2022-11-04T06:06:31.870Z,11.75
2022-11-04T06:08:59.983Z,14.25
2022-11-04T06:11:29.732Z,13.00
2022-11-04T06:13:57.797Z,12.23
2022-11-04T06:16:25.279Z,12.23
2022-11-04T06:18:53.916Z,12.82
2022-11-04T06:21:29.018Z,15.63
2022-11-04T06:23:59.625Z,13.05
2022-11-04T06:26:28.956Z,12.00
2022-11-04T06:28:57.195Z,10.88
2022-11-04T06:31:24.188Z,10.65
2022-11-04T06:33:51.591Z,20.48
2022-11-04T06:36:18.561Z,26.48
2022-11-04T06:38:45.926Z,19.17
2022-11-04T06:41:16.935Z,12.32
2022-11-04T06:43:44.505Z,11.43
2022-11-04T06:46:37.456Z,12.18
2022-11-04T06:49:07.645Z,20.23
2022-11-04T06:51:34.587Z,16.33
2022-11-04T06:54:02.100Z,13.88
2022-11-04T06:56:29.226Z,12.63
2022-11-04T06:58:56.940Z,10.88
2022-11-04T07:01:28.162Z,12.95
2022-11-04T07:03:59.303Z,15.35
2022-11-04T07:06:29.181Z,20.15
2022-11-04T07:09:00.316Z,23.20
2022-11-04T07:11:32.081Z,21.67
2022-11-04T07:13:59.575Z,16.63
2022-11-04T07:16:26.703Z,14.65
2022-11-04T07:18:55.746Z,14.07
2022-11-04T07:21:23.711Z,13.80
2022-11-04T07:23:51.481Z,20.48
2022-11-04T07:26:18.916Z,22.88
2022-11-04T07:28:46.237Z,26.27
2022-11-04T07:31:14.910Z,21.23
2022-11-04T07:33:42.492Z,17.60
2022-11-04T07:36:13.411Z,23.08
2022-11-04T07:38:40.688Z,16.52
2022-11-04T07:41:08.331Z,15.65
2022-11-04T07:43:35.569Z,15.57
2022-11-04T07:46:14.659Z,17.05
2022-11-04T07:48:42.008Z,20.13
2022-11-04T07:51:16.267Z,16.08
2022-11-04T07:53:44.220Z,17.40
2022-11-04T07:56:13.516Z,13.82
2022-11-04T07:58:41.919Z,14.25
2022-11-04T08:01:16.412Z,13.70
2022-11-04T08:03:44.553Z,10.68
2022-11-04T08:06:14.761Z,15.93
2022-11-04T08:08:43.578Z,14.27
2022-11-04T08:11:18.187Z,15.43
2022-11-04T08:13:47.006Z,13.82
2022-11-04T08:16:21.100Z,13.55
2022-11-04T08:18:52.106Z,11.30
2022-11-04T08:21:21.008Z,13.27
2022-11-04T08:23:48.362Z,12.75
2022-11-04T08:26:19.314Z,11.80
2022-11-04T08:28:47.691Z,14.15
2022-11-04T08:31:21.119Z,9.75
2022-11-04T08:33:48.713Z,10.45
2022-11-04T08:36:23.902Z,9.55
2022-11-04T08:38:53.807Z,11.35
2022-11-04T08:41:29.181Z,11.82
2022-11-04T08:44:01.071Z,12.40
2022-11-04T08:46:29.289Z,8.82
2022-11-04T08:48:56.629Z,11.10
2022-11-04T08:51:27.589Z,13.25
2022-11-04T08:53:55.198Z,10.52
2022-11-04T08:56:30.164Z,11.35
2022-11-04T08:58:59.872Z,11.73
2022-11-04T09:01:32.757Z,9.35
2022-11-04T09:04:05.762Z,8.70
2022-11-04T09:06:40.404Z,10.65
2022-11-04T09:09:12.432Z,12.32
2022-11-04T09:11:42.267Z,8.80
2022-11-04T09:14:11.240Z,9.73
2022-11-04T09:16:41.357Z,10.93
2022-11-04T09:19:09.251Z,11.32
2022-11-04T09:21:36.397Z,11.10
2022-11-04T09:24:05.076Z,9.50
2022-11-04T09:26:32.230Z,11.43
2022-11-04T09:29:00.461Z,10.02
2022-11-04T09:31:30.380Z,9.05
2022-11-04T09:33:58.195Z,13.48
2022-11-04T09:36:25.830Z,8.18
2022-11-04T09:38:53.991Z,7.95
2022-11-04T09:42:03.183Z,9.40
2022-11-04T09:45:20.740Z,10.10
2022-11-04T09:47:50.725Z,6.88
2022-11-04T09:50:26.608Z,10.65
2022-11-04T09:53:17.722Z,11.35
2022-11-04T09:55:52.711Z,8.73
2022-11-04T09:58:19.986Z,9.80
2022-11-04T10:01:21.076Z,7.60
2022-11-04T10:04:03.269Z,6.72
2022-11-04T10:07:05.747Z,7.60
2022-11-04T10:09:41.966Z,8.25
2022-11-04T10:13:04.391Z,6.97
2022-11-04T10:15:53.704Z,7.53
2022-11-04T10:18:48.626Z,6.65
2022-11-04T10:21:54.027Z,10.40
2022-11-04T10:24:42.496Z,9.80
2022-11-04T10:27:30.687Z,8.55
2022-11-04T10:30:06.775Z,9.18
2022-11-04T10:32:46.035Z,9.73
2022-11-04T10:35:13.241Z,8.32
2022-11-04T10:37:40.417Z,7.40
2022-11-04T10:40:37.777Z,9.07
2022-11-04T10:43:14.063Z,8.48
2022-11-04T10:46:18.887Z,9.90
2022-11-04T10:49:50.568Z,6.35
2022-11-04T10:55:02.160Z,7.28
2022-11-04T10:57:30.890Z,9.18
2022-11-04T11:00:05.466Z,8.30
2022-11-04T11:02:47.126Z,6.05
2022-11-04T11:05:20.164Z,7.55
2022-11-04T11:07:52.841Z,6.38
2022-11-04T11:10:30.829Z,7.07
2022-11-04T11:13:03.571Z,5.85
2022-11-04T11:15:39.257Z,8.43
2022-11-04T11:18:06.446Z,6.68
2022-11-04T11:20:37.604Z,7.57
2022-11-04T11:23:10.000Z,5.68
2022-11-04T11:25:50.344Z,7.78
2022-11-04T11:28:26.564Z,7.88
2022-11-04T11:30:59.948Z,7.80
2022-11-04T11:33:36.838Z,12.68
2022-11-04T11:36:18.113Z,7.50
2022-11-04T11:39:16.931Z,7.40
2022-11-04T11:42:06.360Z,8.98
2022-11-04T11:44:44.616Z,9.35
2022-11-04T11:47:28.115Z,8.85
2022-11-04T11:50:30.643Z,10.73
2022-11-04T11:53:18.419Z,8.20
2022-11-04T11:55:59.689Z,10.07
2022-11-04T12:02:04.677Z,9.45
2022-11-04T12:19:36.123Z,8.77
2022-11-04T12:22:20.318Z,11.70
2022-11-04T12:25:09.419Z,11.85
2022-11-04T12:27:56.290Z,8.75
2022-11-04T12:30:32.607Z,14.27
2022-11-04T12:33:25.842Z,10.77
2022-11-04T12:36:21.103Z,11.77
2022-11-04T12:39:08.724Z,9.85
2022-11-04T12:42:21.085Z,12.00
2022-11-04T12:45:11.396Z,9.77
2022-11-04T14:46:21.476Z,11.80
2022-11-04T14:50:47.717Z,9.35
2022-11-04T15:24:39.665Z,6.60
2022-11-04T15:28:17.477Z,7.97
2022-11-04T15:42:38.342Z,7.80
2022-11-04T16:03:07.945Z,36.15
2022-11-04T16:05:42.830Z,32.47
2022-11-04T16:26:50.866Z,36.15
2022-11-04T16:30:04.672Z,34.42
2022-11-04T18:22:22.214Z,19.88
2022-11-04T19:33:05.936Z,29.58
2022-11-04T19:41:25.869Z,37.90
2022-11-04T19:58:28.954Z,47.65
2022-11-04T20:01:21.525Z,33.88
2022-11-04T20:28:30.086Z,27.27
2022-11-04T20:31:13.117Z,30.08
2022-11-04T21:08:46.869Z,23.88
2022-11-04T21:11:31.846Z,25.33
2022-11-04T21:14:13.733Z,21.83
2022-11-04T21:16:58.527Z,24.20
2022-11-04T21:19:25.664Z,19.02
2022-11-04T21:27:41.747Z,22.88
2022-11-04T21:30:12.854Z,26.80
2022-11-04T21:32:39.861Z,26.17
2022-11-04T21:35:08.103Z,23.25
2022-11-04T21:37:37.115Z,25.13
2022-11-04T21:40:05.411Z,32.70
2022-11-04T21:42:32.399Z,30.80
2022-11-04T21:44:59.535Z,27.08
2022-11-04T21:47:26.652Z,29.83
2022-11-04T21:49:53.829Z,25.35
2022-11-04T21:52:20.800Z,28.73
2022-11-04T22:32:46.451Z,29.13
2022-11-04T23:08:34.982Z,25.33
2022-11-04T23:11:38.413Z,24.10
2022-11-04T23:50:27.873Z,21.00
